sensor_id;sensor_type;location;lat;lon;timestamp;P1;durP1;ratioP1;P2;durP2;ratioP2
42724;SDS011;28369;44.046;23.014;2023-04-06T13:13:52;9.80;;;6.82;;
42724;SDS011;28369;44.046;23.014;2023-04-06T13:16:18;11.05;;;7.75;;
42724;SDS011;28369;44.046;23.014;2023-04-06T13:18:43;11.57;;;5.68;;
42724;SDS011;28369;44.046;23.014;2023-04-06T13:21:09;8.07;;;4.72;;
42724;SDS011;28369;44.046;23.014;2023-04-06T13:23:39;12.88;;;6.40;;
42724;SDS011;28369;44.046;23.014;2023-04-06T13:26:05;10.02;;;5.32;;
42724;SDS011;28369;44.046;23.014;2023-04-06T13:28:33;6.60;;;4.03;;
42724;SDS011;28369;44.046;23.014;2023-04-06T13:30:59;5.35;;;3.63;;
42724;SDS011;28369;44.046;23.014;2023-04-06T13:33:26;9.48;;;5.65;;
42724;SDS011;28369;44.046;23.014;2023-04-06T13:35:52;4.65;;;3.10;;
42724;SDS011;28369;44.046;23.014;2023-04-06T13:38:18;5.70;;;3.63;;
42724;SDS011;28369;44.046;23.014;2023-04-06T13:40:43;8.50;;;4.15;;
42724;SDS011;28369;44.046;23.014;2023-04-06T13:43:09;5.20;;;3.80;;
42724;SDS011;28369;44.046;23.014;2023-04-06T13:45:36;7.22;;;3.20;;
42724;SDS011;28369;44.046;23.014;2023-04-06T13:48:01;8.30;;;3.75;;
42724;SDS011;28369;44.046;23.014;2023-04-06T13:50:27;5.20;;;3.33;;
42724;SDS011;28369;44.046;23.014;2023-04-06T13:52:53;6.03;;;4.10;;
42724;SDS011;28369;44.046;23.014;2023-04-06T13:55:18;5.85;;;3.95;;
42724;SDS011;28369;44.046;23.014;2023-04-06T13:57:44;4.70;;;3.55;;
42724;SDS011;28369;44.046;23.014;2023-04-06T14:00:10;11.05;;;5.60;;
42724;SDS011;28369;44.046;23.014;2023-04-06T14:02:37;6.53;;;4.25;;
42724;SDS011;28369;44.046;23.014;2023-04-06T14:05:03;6.13;;;3.72;;
42724;SDS011;28369;44.046;23.014;2023-04-06T14:07:29;5.18;;;3.58;;
42724;SDS011;28369;44.046;23.014;2023-04-06T14:09:55;5.30;;;2.67;;
42724;SDS011;28369;44.046;23.014;2023-04-06T14:16:01;5.72;;;3.53;;
42724;SDS011;28369;44.046;23.014;2023-04-06T14:18:26;5.68;;;3.55;;
42724;SDS011;28369;44.046;23.014;2023-04-06T14:20:55;6.18;;;3.60;;
42724;SDS011;28369;44.046;23.014;2023-04-06T14:23:25;5.55;;;3.55;;
42724;SDS011;28369;44.046;23.014;2023-04-06T14:26:13;6.07;;;3.20;;
42724;SDS011;28369;44.046;23.014;2023-04-06T14:28:38;6.15;;;3.65;;
42724;SDS011;28369;44.046;23.014;2023-04-06T14:31:11;3.38;;;3.03;;
42724;SDS011;28369;44.046;23.014;2023-04-06T14:33:38;6.63;;;3.85;;
42724;SDS011;28369;44.046;23.014;2023-04-06T14:36:04;4.15;;;3.28;;
42724;SDS011;28369;44.046;23.014;2023-04-06T14:38:30;4.20;;;2.95;;
42724;SDS011;28369;44.046;23.014;2023-04-06T14:40:57;4.82;;;3.78;;
42724;SDS011;28369;44.046;23.014;2023-04-06T14:43:22;4.47;;;3.03;;
42724;SDS011;28369;44.046;23.014;2023-04-06T14:45:48;5.25;;;3.60;;
42724;SDS011;28369;44.046;23.014;2023-04-06T14:48:13;5.70;;;4.00;;
42724;SDS011;28369;44.046;23.014;2023-04-06T14:50:40;5.65;;;3.70;;
42724;SDS011;28369;44.046;23.014;2023-04-06T14:53:06;6.35;;;3.95;;
42724;SDS011;28369;44.046;23.014;2023-04-06T14:55:32;4.35;;;3.35;;
42724;SDS011;28369;44.046;23.014;2023-04-06T14:57:58;5.15;;;3.65;;
42724;SDS011;28369;44.046;23.014;2023-04-06T15:00:23;4.55;;;3.53;;
42724;SDS011;28369;44.046;23.014;2023-04-06T15:02:49;7.05;;;4.78;;
42724;SDS011;28369;44.046;23.014;2023-04-06T15:05:14;11.63;;;6.30;;
42724;SDS011;28369;44.046;23.014;2023-04-06T15:07:40;7.55;;;5.03;;
42724;SDS011;28369;44.046;23.014;2023-04-06T15:10:05;6.45;;;4.05;;
42724;SDS011;28369;44.046;23.014;2023-04-06T15:12:32;4.85;;;4.03;;
42724;SDS011;28369;44.046;23.014;2023-04-06T15:18:24;8.30;;;3.92;;
42724;SDS011;28369;44.046;23.014;2023-04-06T15:20:49;7.32;;;3.90;;
42724;SDS011;28369;44.046;23.014;2023-04-06T15:23:15;4.82;;;3.80;;
42724;SDS011;28369;44.046;23.014;2023-04-06T15:25:41;6.13;;;4.20;;
42724;SDS011;28369;44.046;23.014;2023-04-06T15:28:06;9.50;;;4.30;;
42724;SDS011;28369;44.046;23.014;2023-04-06T15:30:32;6.88;;;4.60;;
42724;SDS011;28369;44.046;23.014;2023-04-06T15:32:58;6.05;;;4.47;;
42724;SDS011;28369;44.046;23.014;2023-04-06T15:39:05;8.48;;;4.90;;
42724;SDS011;28369;44.046;23.014;2023-04-06T15:44:55;6.55;;;4.05;;
42724;SDS011;28369;44.046;23.014;2023-04-06T15:50:47;6.55;;;4.10;;
42724;SDS011;28369;44.046;23.014;2023-04-06T15:53:12;9.30;;;4.88;;
42724;SDS011;28369;44.046;23.014;2023-04-06T15:55:38;9.18;;;4.78;;
42724;SDS011;28369;44.046;23.014;2023-04-06T15:58:03;13.48;;;4.75;;
42724;SDS011;28369;44.046;23.014;2023-04-06T16:00:31;13.25;;;6.80;;
42724;SDS011;28369;44.046;23.014;2023-04-06T16:06:18;5.18;;;3.83;;
42724;SDS011;28369;44.046;23.014;2023-04-06T16:08:43;8.75;;;4.00;;
42724;SDS011;28369;44.046;23.014;2023-04-06T16:11:09;5.93;;;4.22;;
42724;SDS011;28369;44.046;23.014;2023-04-06T16:13:35;9.20;;;5.18;;
42724;SDS011;28369;44.046;23.014;2023-04-06T16:19:22;18.55;;;8.52;;
42724;SDS011;28369;44.046;23.014;2023-04-06T16:25:15;10.23;;;6.18;;
42724;SDS011;28369;44.046;23.014;2023-04-06T16:27:41;7.88;;;4.93;;
42724;SDS011;28369;44.046;23.014;2023-04-06T16:30:07;7.65;;;4.82;;
42724;SDS011;28369;44.046;23.014;2023-04-06T16:32:33;9.25;;;4.80;;
42724;SDS011;28369;44.046;23.014;2023-04-06T16:34:59;8.18;;;5.13;;
42724;SDS011;28369;44.046;23.014;2023-04-06T16:37:25;6.80;;;4.63;;
42724;SDS011;28369;44.046;23.014;2023-04-06T16:39:51;10.43;;;5.82;;
42724;SDS011;28369;44.046;23.014;2023-04-06T16:42:17;6.20;;;4.80;;
42724;SDS011;28369;44.046;23.014;2023-04-06T16:44:44;11.55;;;6.60;;
42724;SDS011;28369;44.046;23.014;2023-04-06T16:47:12;11.95;;;7.22;;
42724;SDS011;28369;44.046;23.014;2023-04-06T16:49:42;9.65;;;5.97;;
42724;SDS011;28369;44.046;23.014;2023-04-06T16:52:08;10.27;;;6.07;;
42724;SDS011;28369;44.046;23.014;2023-04-06T16:54:34;12.02;;;6.35;;
42724;SDS011;28369;44.046;23.014;2023-04-06T16:57:00;13.45;;;6.05;;
42724;SDS011;28369;44.046;23.014;2023-04-06T16:59:26;10.57;;;7.00;;
42724;SDS011;28369;44.046;23.014;2023-04-06T17:01:52;17.38;;;10.70;;
42724;SDS011;28369;44.046;23.014;2023-04-06T17:04:18;12.48;;;7.90;;
42724;SDS011;28369;44.046;23.014;2023-04-06T17:06:43;8.15;;;5.68;;
42724;SDS011;28369;44.046;23.014;2023-04-06T17:09:09;8.75;;;5.53;;
42724;SDS011;28369;44.046;23.014;2023-04-06T17:11:34;10.27;;;5.85;;
42724;SDS011;28369;44.046;23.014;2023-04-06T17:14:00;14.40;;;8.90;;
42724;SDS011;28369;44.046;23.014;2023-04-06T17:16:25;8.75;;;5.90;;
42724;SDS011;28369;44.046;23.014;2023-04-06T17:18:51;13.80;;;7.22;;
42724;SDS011;28369;44.046;23.014;2023-04-06T17:21:16;8.27;;;5.63;;
42724;SDS011;28369;44.046;23.014;2023-04-06T17:23:44;7.85;;;6.25;;
42724;SDS011;28369;44.046;23.014;2023-04-06T17:26:10;11.27;;;7.15;;
42724;SDS011;28369;44.046;23.014;2023-04-06T17:28:36;15.45;;;9.20;;
42724;SDS011;28369;44.046;23.014;2023-04-06T17:31:01;13.50;;;7.47;;
42724;SDS011;28369;44.046;23.014;2023-04-06T17:33:33;11.55;;;7.82;;
42724;SDS011;28369;44.046;23.014;2023-04-06T17:35:59;12.88;;;8.20;;
42724;SDS011;28369;44.046;23.014;2023-04-06T17:38:25;14.25;;;8.05;;
42724;SDS011;28369;44.046;23.014;2023-04-06T17:40:50;10.32;;;7.30;;
42724;SDS011;28369;44.046;23.014;2023-04-06T17:43:16;14.23;;;8.15;;
42724;SDS011;28369;44.046;23.014;2023-04-06T17:45:42;10.95;;;6.53;;
42724;SDS011;28369;44.046;23.014;2023-04-06T17:48:07;11.60;;;7.70;;
42724;SDS011;28369;44.046;23.014;2023-04-06T17:50:36;12.80;;;7.68;;
42724;SDS011;28369;44.046;23.014;2023-04-06T17:53:03;8.70;;;5.47;;
42724;SDS011;28369;44.046;23.014;2023-04-06T17:58:54;7.35;;;5.20;;
42724;SDS011;28369;44.046;23.014;2023-04-06T18:04:28;13.60;;;6.72;;
42724;SDS011;28369;44.046;23.014;2023-04-06T18:10:19;12.30;;;7.35;;
42724;SDS011;28369;44.046;23.014;2023-04-06T18:16:15;13.18;;;7.32;;
42724;SDS011;28369;44.046;23.014;2023-04-06T18:18:41;15.93;;;7.97;;
42724;SDS011;28369;44.046;23.014;2023-04-06T18:21:07;13.07;;;8.30;;
42724;SDS011;28369;44.046;23.014;2023-04-06T18:23:36;13.07;;;8.75;;
42724;SDS011;28369;44.046;23.014;2023-04-06T18:29:27;13.88;;;7.55;;
42724;SDS011;28369;44.046;23.014;2023-04-06T18:31:52;8.05;;;5.05;;
42724;SDS011;28369;44.046;23.014;2023-04-06T18:34:19;10.88;;;6.72;;
42724;SDS011;28369;44.046;23.014;2023-04-06T18:36:51;10.75;;;7.10;;
42724;SDS011;28369;44.046;23.014;2023-04-06T18:42:39;12.67;;;7.50;;
42724;SDS011;28369;44.046;23.014;2023-04-06T18:48:33;13.43;;;8.98;;
42724;SDS011;28369;44.046;23.014;2023-04-06T18:50:58;13.35;;;7.20;;
42724;SDS011;28369;44.046;23.014;2023-04-06T18:53:27;14.43;;;8.63;;
42724;SDS011;28369;44.046;23.014;2023-04-06T18:55:52;14.45;;;8.52;;
42724;SDS011;28369;44.046;23.014;2023-04-06T18:58:20;13.75;;;8.90;;
42724;SDS011;28369;44.046;23.014;2023-04-06T19:00:45;10.77;;;8.05;;
42724;SDS011;28369;44.046;23.014;2023-04-06T19:03:13;10.43;;;7.53;;
42724;SDS011;28369;44.046;23.014;2023-04-06T19:05:39;13.57;;;7.85;;
42724;SDS011;28369;44.046;23.014;2023-04-06T19:08:05;12.98;;;8.30;;
42724;SDS011;28369;44.046;23.014;2023-04-06T19:10:36;14.18;;;8.45;;
42724;SDS011;28369;44.046;23.014;2023-04-06T19:16:24;20.90;;;9.93;;
42724;SDS011;28369;44.046;23.014;2023-04-06T19:22:13;17.90;;;9.60;;
42724;SDS011;28369;44.046;23.014;2023-04-06T19:24:39;15.02;;;9.15;;
42724;SDS011;28369;44.046;23.014;2023-04-06T19:27:06;12.77;;;8.95;;
42724;SDS011;28369;44.046;23.014;2023-04-06T19:29:37;13.57;;;8.77;;
42724;SDS011;28369;44.046;23.014;2023-04-06T19:35:26;11.90;;;7.82;;
42724;SDS011;28369;44.046;23.014;2023-04-06T19:41:23;17.03;;;8.90;;
42724;SDS011;28369;44.046;23.014;2023-04-06T19:47:15;21.75;;;10.00;;
42724;SDS011;28369;44.046;23.014;2023-04-06T19:53:05;22.65;;;11.10;;
42724;SDS011;28369;44.046;23.014;2023-04-06T19:58:53;18.97;;;10.67;;
42724;SDS011;28369;44.046;23.014;2023-04-06T20:01:19;19.02;;;10.35;;
42724;SDS011;28369;44.046;23.014;2023-04-06T20:03:45;16.02;;;8.93;;
42724;SDS011;28369;44.046;23.014;2023-04-06T20:06:10;17.77;;;9.90;;
42724;SDS011;28369;44.046;23.014;2023-04-06T20:08:36;17.85;;;10.57;;
42724;SDS011;28369;44.046;23.014;2023-04-06T20:11:05;17.92;;;10.13;;
42724;SDS011;28369;44.046;23.014;2023-04-06T20:16:05;16.60;;;10.65;;
42724;SDS011;28369;44.046;23.014;2023-04-06T20:29:02;15.18;;;9.30;;
42724;SDS011;28369;44.046;23.014;2023-04-06T20:34:55;16.17;;;10.07;;
42724;SDS011;28369;44.046;23.014;2023-04-06T20:40:54;16.58;;;9.70;;
42724;SDS011;28369;44.046;23.014;2023-04-06T20:43:23;12.10;;;7.90;;
42724;SDS011;28369;44.046;23.014;2023-04-06T20:45:52;13.77;;;9.48;;
42724;SDS011;28369;44.046;23.014;2023-04-06T20:54:37;12.65;;;8.75;;
42724;SDS011;28369;44.046;23.014;2023-04-06T20:57:02;9.48;;;7.25;;
42724;SDS011;28369;44.046;23.014;2023-04-06T20:59:28;15.95;;;8.27;;
42724;SDS011;28369;44.046;23.014;2023-04-06T21:01:53;10.98;;;7.80;;
42724;SDS011;28369;44.046;23.014;2023-04-06T21:04:19;16.02;;;9.82;;
42724;SDS011;28369;44.046;23.014;2023-04-06T21:06:46;17.27;;;10.25;;
42724;SDS011;28369;44.046;23.014;2023-04-06T21:09:13;21.67;;;12.00;;
42724;SDS011;28369;44.046;23.014;2023-04-06T21:11:39;22.33;;;13.43;;
42724;SDS011;28369;44.046;23.014;2023-04-06T21:14:09;22.52;;;12.10;;
42724;SDS011;28369;44.046;23.014;2023-04-06T21:16:35;26.50;;;14.80;;
42724;SDS011;28369;44.046;23.014;2023-04-06T21:19:01;19.90;;;12.70;;
42724;SDS011;28369;44.046;23.014;2023-04-06T21:24:49;24.83;;;13.77;;
42724;SDS011;28369;44.046;23.014;2023-04-06T21:27:15;34.58;;;17.48;;
42724;SDS011;28369;44.046;23.014;2023-04-06T21:29:40;34.97;;;16.83;;
42724;SDS011;28369;44.046;23.014;2023-04-06T21:32:12;28.25;;;14.95;;
42724;SDS011;28369;44.046;23.014;2023-04-06T21:34:40;23.13;;;14.43;;
42724;SDS011;28369;44.046;23.014;2023-04-06T21:37:06;25.40;;;15.73;;
42724;SDS011;28369;44.046;23.014;2023-04-06T21:39:43;26.30;;;14.85;;
42724;SDS011;28369;44.046;23.014;2023-04-06T21:42:08;25.25;;;14.88;;
42724;SDS011;28369;44.046;23.014;2023-04-06T21:44:34;30.27;;;17.85;;
42724;SDS011;28369;44.046;23.014;2023-04-06T21:46:59;37.50;;;19.75;;
42724;SDS011;28369;44.046;23.014;2023-04-06T21:49:42;28.67;;;17.50;;
42724;SDS011;28369;44.046;23.014;2023-04-06T21:55:32;28.75;;;17.30;;
42724;SDS011;28369;44.046;23.014;2023-04-06T22:01:25;38.25;;;18.88;;
42724;SDS011;28369;44.046;23.014;2023-04-06T22:07:26;30.52;;;15.68;;
42724;SDS011;28369;44.046;23.014;2023-04-06T22:13:13;22.38;;;12.73;;
42724;SDS011;28369;44.046;23.014;2023-04-06T22:19:06;20.30;;;13.20;;
42724;SDS011;28369;44.046;23.014;2023-04-06T22:24:53;21.00;;;12.07;;
42724;SDS011;28369;44.046;23.014;2023-04-06T22:33:33;29.65;;;17.27;;
42724;SDS011;28369;44.046;23.014;2023-04-06T22:35:59;36.65;;;18.17;;
42724;SDS011;28369;44.046;23.014;2023-04-06T22:54:45;25.45;;;15.98;;
42724;SDS011;28369;44.046;23.014;2023-04-06T22:57:10;21.50;;;13.80;;
42724;SDS011;28369;44.046;23.014;2023-04-06T23:03:13;24.83;;;14.45;;
42724;SDS011;28369;44.046;23.014;2023-04-06T23:15:31;22.88;;;14.00;;
42724;SDS011;28369;44.046;23.014;2023-04-06T23:27:49;17.25;;;11.48;;
42724;SDS011;28369;44.046;23.014;2023-04-06T23:58:55;18.83;;;11.40;;
